Time;durP1;ratioP1;P1;durP2;ratioP2;P2;SDS_P1;SDS_P2;PMS_P1;PMS_P2;Temp;Humidity;BMP_temperature;BMP_pressure;BME280_temperature;BME280_humidity;BME280_pressure;Samples;Min_cycle;Max_cycle;Signal;HPM_P1;HPM_P2
2022/05/25 00:00:01;;;;;;;0.40;0.23;;;14.20;99.90;;;;;;4933199;29;20406;-72
2022/05/25 00:02:26;;;;;;;0.40;0.20;;;14.20;99.90;;;;;;4935929;29;20392;-73
2022/05/25 00:04:53;;;;;;;0.40;0.20;;;14.20;99.90;;;;;;4919708;29;20893;-73
2022/05/25 00:07:21;;;;;;;0.40;0.20;;;14.20;99.90;;;;;;4917083;29;20412;-73
2022/05/25 00:09:48;;;;;;;0.40;0.20;;;14.10;99.90;;;;;;4926692;29;20420;-73
2022/05/25 00:12:15;;;;;;;0.40;0.20;;;14.00;99.90;;;;;;4935842;29;20752;-73
2022/05/25 00:14:41;;;;;;;0.40;0.20;;;14.10;99.90;;;;;;4935503;29;20831;-74
2022/05/25 00:17:07;;;;;;;0.40;0.30;;;14.10;99.90;;;;;;4935624;29;20392;-73
2022/05/25 00:22:17;;;;;;;0.40;0.20;;;14.00;99.90;;;;;;4947201;28;20423;-72
2022/05/25 00:24:43;;;;;;;0.40;0.30;;;14.10;99.90;;;;;;4935156;29;20420;-74
2022/05/25 00:27:09;;;;;;;0.40;0.20;;;14.20;99.90;;;;;;4936101;29;20755;-73
2022/05/25 00:29:36;;;;;;;0.40;0.20;;;14.20;99.90;;;;;;4935466;29;20463;-73
2022/05/25 00:32:03;;;;;;;0.40;0.20;;;14.10;99.90;;;;;;4935096;29;20387;-73
2022/05/25 00:34:29;;;;;;;0.40;0.20;;;14.00;99.90;;;;;;4935748;29;20400;-72
2022/05/25 00:36:55;;;;;;;0.40;0.20;;;14.10;99.90;;;;;;4935116;29;20400;-73
2022/05/25 00:39:23;;;;;;;0.40;0.30;;;14.10;99.90;;;;;;4935581;29;20407;-72
2022/05/25 00:41:50;;;;;;;0.40;0.20;;;14.10;99.90;;;;;;4934501;29;20414;-72
2022/05/25 00:44:16;;;;;;;0.40;0.20;;;14.00;99.90;;;;;;4935830;29;20442;-72
2022/05/25 00:46:43;;;;;;;0.40;0.20;;;13.90;99.90;;;;;;4935268;29;20396;-73
2022/05/25 00:49:22;;;;;;;0.40;0.30;;;14.00;99.90;;;;;;4935058;29;20384;-73
2022/05/25 00:51:54;;;;;;;0.40;0.20;;;14.00;99.90;;;;;;4934056;29;20503;-73
2022/05/25 00:54:33;;;;;;;0.40;0.30;;;13.90;99.90;;;;;;4935456;29;20899;-72
2022/05/25 00:57:10;;;;;;;0.40;0.20;;;13.90;99.90;;;;;;4933958;29;20455;-72
2022/05/25 00:59:54;;;;;;;0.40;0.20;;;13.90;99.90;;;;;;4934145;29;20760;-72
2022/05/25 01:02:20;;;;;;;0.40;0.20;;;14.00;99.90;;;;;;4934088;29;20459;-72
2022/05/25 01:04:47;;;;;;;0.40;0.20;;;13.90;99.90;;;;;;4934615;29;20399;-74
2022/05/25 01:07:18;;;;;;;0.40;0.20;;;13.90;99.90;;;;;;4934267;29;20442;-72
2022/05/25 01:09:47;;;;;;;0.40;0.20;;;14.00;99.90;;;;;;4935024;29;20478;-73
2022/05/25 01:12:37;;;;;;;0.40;0.30;;;13.90;99.90;;;;;;4935049;29;20747;-72
2022/05/25 01:15:42;;;;;;;0.40;0.20;;;13.90;99.90;;;;;;4934721;29;20466;-72
2022/05/25 01:18:25;;;;;;;0.40;0.20;;;13.90;99.90;;;;;;4934150;29;20396;-72
2022/05/25 01:21:02;;;;;;;0.40;0.20;;;13.80;99.90;;;;;;4934146;29;20412;-73
2022/05/25 01:23:48;;;;;;;0.40;0.20;;;13.80;99.90;;;;;;4934631;29;20407;-72
2022/05/25 01:26:36;;;;;;;0.40;0.20;;;13.80;99.90;;;;;;4935006;29;20941;-72
2022/05/25 01:29:02;;;;;;;0.40;0.20;;;13.80;99.90;;;;;;4933784;29;20752;-72
2022/05/25 01:32:05;;;;;;;0.40;0.20;;;13.80;99.90;;;;;;4934462;29;20404;-72
2022/05/25 01:34:52;;;;;;;0.40;0.40;;;13.80;99.90;;;;;;4934092;29;20444;-72
2022/05/25 01:37:49;;;;;;;0.40;0.20;;;13.90;99.90;;;;;;4934619;29;20391;-72
2022/05/25 01:40:23;;;;;;;0.40;0.30;;;13.80;99.90;;;;;;4926780;29;20419;-72
2022/05/25 01:43:15;;;;;;;0.40;0.20;;;13.70;99.90;;;;;;4933582;29;20490;-73
2022/05/25 01:45:53;;;;;;;0.40;0.30;;;13.70;99.90;;;;;;4924621;29;20424;-72
2022/05/25 01:48:22;;;;;;;0.40;0.20;;;13.70;99.90;;;;;;4914495;29;20821;-72
2022/05/25 01:50:52;;;;;;;0.40;0.20;;;13.70;99.90;;;;;;4915070;29;20432;-73
2022/05/25 01:53:20;;;;;;;0.40;0.20;;;13.70;99.90;;;;;;4914301;29;20401;-72
2022/05/25 01:55:51;;;;;;;0.40;0.30;;;13.70;99.90;;;;;;4922304;29;20415;-73
2022/05/25 01:58:19;;;;;;;0.40;0.30;;;13.70;99.90;;;;;;4931616;29;20761;-72
2022/05/25 02:00:54;;;;;;;0.40;0.20;;;13.80;99.90;;;;;;4934069;29;20490;-72
2022/05/25 02:06:37;;;;;;;0.50;0.30;;;13.70;99.90;;;;;;4933415;29;20773;-72
2022/05/25 02:09:18;;;;;;;0.40;0.20;;;13.70;99.90;;;;;;4933392;29;20411;-73
2022/05/25 02:11:51;;;;;;;0.40;0.20;;;13.80;99.90;;;;;;4934272;29;20392;-72
2022/05/25 02:14:53;;;;;;;0.40;0.30;;;13.70;99.90;;;;;;4933900;29;20733;-72
2022/05/25 02:17:38;;;;;;;0.40;0.20;;;13.60;99.90;;;;;;4933829;29;20403;-72
2022/05/25 02:20:21;;;;;;;0.40;0.30;;;13.50;99.90;;;;;;4932255;29;20407;-72
2022/05/25 02:22:51;;;;;;;0.40;0.30;;;13.60;99.90;;;;;;4933463;29;20466;-72
2022/05/25 02:25:42;;;;;;;0.40;0.20;;;13.60;99.90;;;;;;4933654;29;20423;-72
2022/05/25 02:28:13;;;;;;;0.40;0.20;;;13.50;99.90;;;;;;4932956;29;20494;-73
2022/05/25 02:30:46;;;;;;;0.40;0.20;;;13.50;99.90;;;;;;4933884;29;20427;-72
2022/05/25 02:33:22;;;;;;;0.40;0.30;;;13.50;99.90;;;;;;4932984;29;20408;-73
2022/05/25 02:35:49;;;;;;;0.40;0.23;;;13.50;99.90;;;;;;4914872;29;20884;-72
2022/05/25 02:38:17;;;;;;;0.40;0.20;;;13.60;99.90;;;;;;4920909;29;20407;-72
2022/05/25 02:40:42;;;;;;;0.40;0.30;;;13.60;99.90;;;;;;4933462;29;20415;-72
2022/05/25 02:43:09;;;;;;;0.40;0.20;;;13.70;99.90;;;;;;4932759;29;20968;-72
2022/05/25 02:45:36;;;;;;;0.40;0.20;;;13.50;99.90;;;;;;4933121;29;20399;-72
2022/05/25 02:48:03;;;;;;;0.40;0.30;;;13.50;99.90;;;;;;4932726;29;20388;-72
2022/05/25 02:50:28;;;;;;;0.40;0.20;;;13.50;99.90;;;;;;4932606;29;20835;-72
2022/05/25 02:52:55;;;;;;;0.40;0.20;;;13.60;99.90;;;;;;4933014;29;20396;-73
2022/05/25 02:55:21;;;;;;;0.40;0.20;;;13.50;99.90;;;;;;4933838;29;20410;-72
2022/05/25 02:57:46;;;;;;;0.40;0.20;;;13.50;99.90;;;;;;4933476;29;20868;-72
2022/05/25 03:00:12;;;;;;;0.40;0.20;;;13.50;99.90;;;;;;4932188;29;20407;-72
2022/05/25 03:02:39;;;;;;;0.40;0.20;;;13.50;99.90;;;;;;4933737;29;20427;-72
2022/05/25 03:05:06;;;;;;;0.40;0.20;;;13.40;99.90;;;;;;4931934;29;20399;-72
2022/05/25 03:07:31;;;;;;;0.40;0.20;;;13.40;99.90;;;;;;4932255;29;20938;-72
2022/05/25 03:09:57;;;;;;;0.40;0.30;;;13.30;99.90;;;;;;4932309;29;20420;-73
2022/05/25 03:12:23;;;;;;;0.40;0.30;;;13.20;99.90;;;;;;4933398;29;20411;-72
2022/05/25 03:14:49;;;;;;;0.40;0.20;;;13.30;99.90;;;;;;4933630;29;20396;-71
2022/05/25 03:17:14;;;;;;;0.40;0.20;;;13.20;99.90;;;;;;4932593;29;20456;-72
2022/05/25 03:19:56;;;;;;;0.40;0.20;;;13.10;99.90;;;;;;4932843;29;20438;-72
2022/05/25 03:22:23;;;;;;;0.40;0.20;;;13.10;99.90;;;;;;4932363;29;20428;-72
2022/05/25 03:24:49;;;;;;;0.40;0.20;;;13.10;99.90;;;;;;4932493;29;20458;-72
2022/05/25 03:27:15;;;;;;;0.40;0.20;;;13.10;99.90;;;;;;4931614;29;21236;-72
2022/05/25 03:29:42;;;;;;;0.40;0.20;;;13.10;99.90;;;;;;4932609;29;20430;-72
2022/05/25 03:32:09;;;;;;;0.40;0.20;;;13.10;99.90;;;;;;4931420;29;20455;-72
2022/05/25 03:34:35;;;;;;;0.40;0.30;;;13.20;99.90;;;;;;4932820;29;20407;-72
2022/05/25 03:37:01;;;;;;;0.40;0.20;;;13.20;99.90;;;;;;4932415;29;20384;-73
2022/05/25 03:39:28;;;;;;;0.40;0.20;;;13.00;99.90;;;;;;4928675;29;20412;-72
2022/05/25 03:41:59;;;;;;;0.40;0.20;;;13.00;99.90;;;;;;4895475;29;20415;-73
2022/05/25 03:44:25;;;;;;;0.40;0.30;;;12.90;99.90;;;;;;4932894;29;20394;-72
2022/05/25 03:46:51;;;;;;;0.40;0.20;;;12.90;99.90;;;;;;4932872;29;20411;-72
2022/05/25 03:49:18;;;;;;;0.40;0.20;;;12.90;99.90;;;;;;4932426;29;20859;-72
2022/05/25 03:51:44;;;;;;;0.40;0.20;;;12.90;99.90;;;;;;4932954;29;20427;-72
2022/05/25 03:54:10;;;;;;;0.40;0.20;;;12.80;99.90;;;;;;4932067;29;20419;-72
2022/05/25 03:56:36;;;;;;;0.40;0.20;;;12.80;99.90;;;;;;4933711;29;20995;-72
2022/05/25 03:59:02;;;;;;;0.40;0.20;;;12.80;99.90;;;;;;4935874;29;20466;-72
2022/05/25 04:01:28;;;;;;;0.40;0.20;;;12.90;99.90;;;;;;4936627;29;20733;-72
2022/05/25 04:03:53;;;;;;;0.40;0.20;;;12.70;99.90;;;;;;4935681;29;20459;-72
2022/05/25 04:06:19;;;;;;;0.40;0.30;;;12.80;99.90;;;;;;4934596;29;20446;-72
2022/05/25 04:08:45;;;;;;;0.40;0.20;;;12.70;99.90;;;;;;4936639;29;20435;-71
2022/05/25 04:11:11;;;;;;;0.40;0.20;;;12.80;99.90;;;;;;4935288;29;20423;-72
2022/05/25 04:13:37;;;;;;;0.40;0.20;;;12.70;99.90;;;;;;4936390;29;20392;-72
2022/05/25 04:16:03;;;;;;;0.40;0.20;;;12.70;99.90;;;;;;4935108;29;20410;-73
2022/05/25 04:18:28;;;;;;;0.40;0.30;;;12.60;99.90;;;;;;4935925;29;20469;-72
2022/05/25 04:20:54;;;;;;;0.40;0.20;;;12.50;99.90;;;;;;4935981;29;20408;-73
2022/05/25 04:23:20;;;;;;;0.40;0.20;;;12.60;99.90;;;;;;4935545;29;20391;-71
2022/05/25 04:25:46;;;;;;;0.40;0.20;;;12.70;99.90;;;;;;4935773;29;20832;-71
2022/05/25 04:28:12;;;;;;;0.40;0.20;;;12.70;99.90;;;;;;4935047;29;20896;-72
2022/05/25 04:30:38;;;;;;;0.40;0.20;;;12.80;99.90;;;;;;4935842;29;20430;-72
2022/05/25 04:33:04;;;;;;;0.40;0.20;;;12.70;99.90;;;;;;4933811;29;20741;-73
2022/05/25 04:35:30;;;;;;;0.40;0.20;;;12.70;99.90;;;;;;4935707;29;20478;-72
2022/05/25 04:37:56;;;;;;;0.43;0.32;;;12.70;99.90;;;;;;4935367;29;20395;-73
2022/05/25 04:40:38;;;;;;;0.40;0.20;;;12.60;99.90;;;;;;4935591;29;20788;-72
2022/05/25 04:43:12;;;;;;;0.40;0.20;;;12.50;99.90;;;;;;4934746;29;20414;-72
2022/05/25 04:45:39;;;;;;;0.40;0.20;;;12.50;99.90;;;;;;4935416;29;20856;-72
2022/05/25 04:48:05;;;;;;;0.40;0.20;;;12.50;99.90;;;;;;4934987;29;20399;-73
2022/05/25 04:50:36;;;;;;;0.40;0.30;;;12.60;99.90;;;;;;4934939;29;20454;-72
2022/05/25 04:53:05;;;;;;;0.40;0.20;;;12.70;99.90;;;;;;4933288;29;20412;-73
2022/05/25 04:58:27;;;;;;;0.40;0.20;;;12.60;99.90;;;;;;4934376;29;20398;-72
2022/05/25 05:00:53;;;;;;;0.40;0.20;;;12.50;99.90;;;;;;4935070;29;20817;-72
2022/05/25 05:03:20;;;;;;;0.40;0.20;;;12.50;99.90;;;;;;4933636;29;20403;-72
2022/05/25 05:05:47;;;;;;;0.40;0.30;;;12.60;99.90;;;;;;4935213;29;20486;-72
2022/05/25 05:08:13;;;;;;;0.40;0.20;;;12.60;99.90;;;;;;4933153;29;20394;-72
2022/05/25 05:10:39;;;;;;;0.40;0.30;;;12.60;99.90;;;;;;4935290;29;20888;-72
2022/05/25 05:13:07;;;;;;;0.40;0.20;;;12.60;99.90;;;;;;4934073;29;20403;-73
2022/05/25 05:15:34;;;;;;;0.40;0.20;;;12.60;99.90;;;;;;4935344;29;20395;-72
2022/05/25 05:18:00;;;;;;;0.40;0.30;;;12.60;99.90;;;;;;4934457;29;20410;-73
2022/05/25 05:20:27;;;;;;;0.40;0.20;;;12.60;99.90;;;;;;4934386;29;20403;-72
2022/05/25 05:22:53;;;;;;;0.40;0.20;;;12.60;99.90;;;;;;4933417;29;20419;-72
2022/05/25 05:25:19;;;;;;;0.40;0.30;;;12.70;99.90;;;;;;4921850;29;20423;-72
2022/05/25 05:27:48;;;;;;;0.40;0.20;;;12.90;99.90;;;;;;4934872;29;20860;-72
2022/05/25 05:30:18;;;;;;;0.40;0.20;;;13.00;99.90;;;;;;4933838;29;20908;-73
2022/05/25 05:32:44;;;;;;;0.40;0.20;;;13.00;99.90;;;;;;4935003;29;20400;-72
2022/05/25 05:35:10;;;;;;;0.40;0.20;;;13.00;99.90;;;;;;4934159;29;20808;-73
2022/05/25 05:37:40;;;;;;;0.40;0.20;;;13.20;99.90;;;;;;4934310;29;20392;-73
2022/05/25 05:40:08;;;;;;;0.40;0.20;;;13.30;99.90;;;;;;4933400;29;20406;-73
2022/05/25 05:42:40;;;;;;;0.40;0.20;;;13.30;99.90;;;;;;4934283;29;20755;-73
2022/05/25 05:45:12;;;;;;;0.40;0.30;;;13.40;99.90;;;;;;4933840;29;20915;-72
2022/05/25 05:47:47;;;;;;;0.40;0.30;;;13.50;99.90;;;;;;4933986;29;20888;-71
2022/05/25 05:50:13;;;;;;;0.40;0.30;;;13.60;99.90;;;;;;4931219;29;20434;-72
2022/05/25 05:52:39;;;;;;;0.40;0.20;;;13.60;99.90;;;;;;4930031;29;20443;-72
2022/05/25 05:55:06;;;;;;;0.40;0.20;;;13.70;99.90;;;;;;4932895;29;20506;-73
2022/05/25 05:57:34;;;;;;;0.40;0.20;;;13.80;99.90;;;;;;4933450;29;21008;-72
2022/05/25 06:00:00;;;;;;;0.40;0.20;;;13.90;99.90;;;;;;4933929;29;20470;-73
2022/05/25 06:02:26;;;;;;;0.40;0.20;;;13.90;99.90;;;;;;4933653;29;20876;-73
2022/05/25 06:04:52;;;;;;;0.40;0.30;;;14.00;99.90;;;;;;4934532;29;20446;-72
2022/05/25 06:07:17;;;;;;;0.40;0.20;;;14.10;99.90;;;;;;4932349;29;20407;-73
2022/05/25 06:09:43;;;;;;;0.40;0.20;;;14.10;99.90;;;;;;4928841;29;20427;-72
2022/05/25 06:12:09;;;;;;;0.40;0.30;;;14.10;99.90;;;;;;4929068;29;20417;-73
2022/05/25 06:14:34;;;;;;;0.40;0.20;;;14.20;99.90;;;;;;4915217;29;20913;-72
2022/05/25 06:19:44;;;;;;;0.40;0.30;;;14.20;99.90;;;;;;4924245;29;21930;-72
2022/05/25 06:22:15;;;;;;;0.40;0.20;;;14.30;99.90;;;;;;4927432;29;20396;-72
2022/05/25 06:24:44;;;;;;;0.40;0.30;;;14.40;99.90;;;;;;4923784;29;20494;-72
2022/05/25 06:27:12;;;;;;;0.40;0.20;;;14.50;99.90;;;;;;4931519;29;20400;-72
2022/05/25 06:29:39;;;;;;;0.40;0.40;;;14.60;99.90;;;;;;4933601;29;21025;-72
2022/05/25 06:32:07;;;;;;;0.40;0.20;;;14.70;99.90;;;;;;4926524;29;20495;-73
2022/05/25 06:34:33;;;;;;;0.50;0.50;;;14.70;99.90;;;;;;4931007;29;20391;-72
2022/05/25 06:36:59;;;;;;;0.40;0.30;;;14.80;99.90;;;;;;4922603;29;20890;-73
2022/05/25 06:39:25;;;;;;;0.40;0.30;;;15.10;99.90;;;;;;4930238;29;20435;-70
2022/05/25 06:41:51;;;;;;;0.40;0.30;;;15.20;99.90;;;;;;4931337;29;20917;-72
2022/05/25 06:44:17;;;;;;;0.40;0.20;;;15.00;99.90;;;;;;4927720;29;20491;-71
2022/05/25 06:46:44;;;;;;;0.40;0.30;;;15.00;99.90;;;;;;4928976;29;20434;-71
2022/05/25 06:49:10;;;;;;;0.80;0.50;;;15.30;99.90;;;;;;4925781;29;20462;-72
2022/05/25 06:51:37;;;;;;;0.40;0.30;;;15.40;99.90;;;;;;4931822;29;20764;-72
2022/05/25 06:54:03;;;;;;;0.40;0.30;;;15.50;99.90;;;;;;4923013;29;20417;-71
2022/05/25 06:56:28;;;;;;;0.47;0.43;;;15.60;99.90;;;;;;4923916;29;20438;-70
2022/05/25 06:58:57;;;;;;;0.80;0.80;;;15.50;99.90;;;;;;4930717;29;20427;-71
2022/05/25 07:01:24;;;;;;;0.40;0.30;;;15.60;99.90;;;;;;4929144;29;20447;-71
2022/05/25 07:03:52;;;;;;;0.40;0.30;;;15.50;99.90;;;;;;4925474;29;20822;-71
2022/05/25 07:06:18;;;;;;;0.40;0.30;;;15.60;99.90;;;;;;4913868;29;20401;-71
2022/05/25 07:08:45;;;;;;;0.40;0.30;;;15.60;99.90;;;;;;4928462;29;20407;-72
2022/05/25 07:11:12;;;;;;;0.40;0.40;;;15.60;99.90;;;;;;4927069;29;20459;-72
2022/05/25 07:13:39;;;;;;;3.20;2.10;;;15.50;99.90;;;;;;4933103;29;20827;-71
2022/05/25 07:16:07;;;;;;;0.85;0.82;;;15.60;99.90;;;;;;4920655;29;20401;-72
2022/05/25 07:18:33;;;;;;;0.40;0.20;;;15.60;99.90;;;;;;4927937;29;20411;-72
2022/05/25 07:21:07;;;;;;;0.40;0.30;;;15.60;99.90;;;;;;4933542;29;20780;-72
2022/05/25 07:23:35;;;;;;;0.40;0.30;;;15.60;99.90;;;;;;4933103;29;20396;-72
2022/05/25 07:26:01;;;;;;;0.40;0.40;;;15.60;99.90;;;;;;4933139;29;20399;-71
2022/05/25 07:28:27;;;;;;;0.40;0.30;;;16.00;99.90;;;;;;4932418;29;20572;-70
2022/05/25 07:30:58;;;;;;;0.40;0.30;;;16.10;99.90;;;;;;4934224;29;20805;-70
2022/05/25 07:33:24;;;;;;;0.40;0.20;;;16.00;99.90;;;;;;4936209;29;20876;-72
2022/05/25 07:35:50;;;;;;;0.40;0.20;;;16.10;99.90;;;;;;4937072;29;20395;-69
2022/05/25 07:38:16;;;;;;;0.40;0.20;;;16.10;99.90;;;;;;4935988;29;20927;-70
2022/05/25 07:40:42;;;;;;;0.40;0.20;;;16.30;99.90;;;;;;4937068;29;20403;-71
2022/05/25 07:43:18;;;;;;;0.40;0.20;;;16.20;99.90;;;;;;4936519;29;20764;-70
2022/05/25 07:45:47;;;;;;;0.40;0.20;;;16.30;99.40;;;;;;4936985;29;20391;-70
2022/05/25 07:48:14;;;;;;;0.40;0.30;;;16.30;99.20;;;;;;4934899;29;20872;-71
2022/05/25 07:50:42;;;;;;;0.40;0.30;;;16.30;99.00;;;;;;4935919;29;20797;-71
2022/05/25 07:55:56;;;;;;;0.40;0.20;;;16.40;98.60;;;;;;4925500;29;20955;-72
2022/05/25 07:58:21;;;;;;;0.40;0.20;;;16.30;98.10;;;;;;4932981;29;20412;-72
2022/05/25 08:00:49;;;;;;;0.40;0.20;;;16.50;97.40;;;;;;4933310;29;20423;-72
2022/05/25 08:05:59;;;;;;;0.40;0.20;;;16.40;97.50;;;;;;4947792;29;20464;-71
2022/05/25 08:08:25;;;;;;;0.40;0.20;;;16.40;97.70;;;;;;4937953;29;20884;-71
2022/05/25 08:11:01;;;;;;;0.40;0.20;;;16.50;96.80;;;;;;4936105;29;20445;-72
2022/05/25 08:13:28;;;;;;;0.40;0.20;;;16.50;98.50;;;;;;4942793;29;20440;-72
2022/05/25 08:15:53;;;;;;;0.40;0.30;;;16.60;99.20;;;;;;4943410;29;20427;-72
2022/05/25 08:18:20;;;;;;;0.40;0.20;;;16.80;99.20;;;;;;4941162;29;20812;-73
2022/05/25 08:20:46;;;;;;;0.40;0.20;;;17.10;98.40;;;;;;4939757;29;20804;-72
2022/05/25 08:23:15;;;;;;;0.40;0.30;;;16.70;96.20;;;;;;4932560;29;20426;-73
2022/05/25 08:25:42;;;;;;;0.40;0.20;;;16.70;97.40;;;;;;4926632;29;20492;-72
2022/05/25 08:28:08;;;;;;;0.40;0.30;;;16.70;95.20;;;;;;4920984;29;20421;-72
2022/05/25 08:30:37;;;;;;;0.40;0.20;;;16.90;96.10;;;;;;4923795;29;20430;-72
2022/05/25 08:33:03;;;;;;;0.40;0.20;;;17.00;94.70;;;;;;4932614;29;20424;-72
2022/05/25 08:35:30;;;;;;;0.40;0.30;;;17.00;94.70;;;;;;4930605;29;20418;-72
2022/05/25 08:37:59;;;;;;;0.40;0.20;;;17.10;94.60;;;;;;4922294;29;20403;-69
2022/05/25 08:40:27;;;;;;;0.40;0.20;;;17.10;93.20;;;;;;4915971;29;20401;-71
2022/05/25 08:42:56;;;;;;;0.40;0.20;;;17.20;92.90;;;;;;4934162;29;20426;-69
2022/05/25 08:45:26;;;;;;;0.40;0.20;;;17.20;93.40;;;;;;4934854;29;20412;-71
2022/05/25 08:47:56;;;;;;;0.40;0.30;;;17.30;93.80;;;;;;4929299;29;20478;-71
2022/05/25 08:50:23;;;;;;;0.40;0.20;;;17.20;93.10;;;;;;4934813;29;20918;-71
2022/05/25 08:52:48;;;;;;;0.40;0.30;;;17.10;93.50;;;;;;4935372;29;20431;-71
2022/05/25 08:55:45;;;;;;;0.40;0.30;;;17.30;92.60;;;;;;4935333;29;20438;-72
2022/05/25 08:58:13;;;;;;;0.40;0.20;;;17.30;92.50;;;;;;4905179;29;20399;-70
2022/05/25 09:00:43;;;;;;;0.40;0.30;;;17.30;92.20;;;;;;4935027;29;20470;-71
2022/05/25 09:03:25;;;;;;;0.40;0.20;;;17.60;91.70;;;;;;4934531;29;20436;-71
2022/05/25 09:06:02;;;;;;;0.40;0.20;;;17.60;91.60;;;;;;4935899;29;20384;-69
2022/05/25 09:08:52;;;;;;;0.40;0.20;;;17.80;90.50;;;;;;4934605;29;20391;-71
2022/05/25 09:11:25;;;;;;;0.40;0.20;;;17.70;91.10;;;;;;4933984;29;20419;-72
2022/05/25 09:14:27;;;;;;;0.40;0.30;;;17.60;90.70;;;;;;4930220;29;20408;-71
2022/05/25 09:16:57;;;;;;;0.40;0.30;;;17.40;90.50;;;;;;4934991;29;20395;-71
2022/05/25 09:19:28;;;;;;;0.40;0.20;;;17.30;90.60;;;;;;4934128;29;20399;-72
2022/05/25 09:22:05;;;;;;;0.40;0.30;;;17.60;92.60;;;;;;4933776;29;20872;-71
2022/05/25 09:24:32;;;;;;;0.40;0.20;;;17.80;91.80;;;;;;4934139;29;20428;-71
2022/05/25 09:27:03;;;;;;;0.40;0.20;;;17.90;89.70;;;;;;4935116;29;20487;-71
2022/05/25 09:29:29;;;;;;;0.40;0.20;;;18.00;87.80;;;;;;4934014;29;20391;-72
2022/05/25 09:32:33;;;;;;;0.40;0.20;;;18.00;88.10;;;;;;4934759;29;20392;-72
2022/05/25 09:35:24;;;;;;;0.40;0.20;;;17.80;90.50;;;;;;4934843;29;20455;-72
2022/05/25 09:38:03;;;;;;;0.40;0.30;;;18.30;90.70;;;;;;4929560;29;20404;-70
2022/05/25 09:40:45;;;;;;;0.40;0.30;;;18.20;87.30;;;;;;4934060;29;20383;-72
2022/05/25 09:43:17;;;;;;;0.40;0.25;;;18.10;88.40;;;;;;4934809;29;20443;-72
2022/05/25 09:46:08;;;;;;;0.40;0.20;;;17.90;90.00;;;;;;4934449;29;20392;-72
2022/05/25 09:48:47;;;;;;;0.40;0.30;;;17.80;91.50;;;;;;4933118;29;20593;-72
2022/05/25 09:51:31;;;;;;;0.40;0.20;;;18.00;90.00;;;;;;4932868;29;20904;-71
2022/05/25 09:54:14;;;;;;;0.40;0.20;;;18.30;88.50;;;;;;4934237;29;20403;-70
2022/05/25 09:56:43;;;;;;;0.40;0.20;;;18.40;83.50;;;;;;4933897;29;20467;-71
2022/05/25 09:59:37;;;;;;;0.40;0.20;;;18.20;81.20;;;;;;4934331;29;20419;-70
2022/05/25 10:02:21;;;;;;;0.40;0.30;;;18.20;82.20;;;;;;4926126;29;20396;-71
2022/05/25 10:04:55;;;;;;;0.40;0.20;;;18.20;80.90;;;;;;4934522;29;20387;-69
2022/05/25 10:07:25;;;;;;;0.40;0.20;;;18.60;78.70;;;;;;4933697;29;20391;-70
2022/05/25 10:09:53;;;;;;;0.40;0.20;;;18.80;77.10;;;;;;4934618;29;20779;-71
2022/05/25 10:12:43;;;;;;;0.40;0.30;;;19.10;76.90;;;;;;4933740;29;20482;-71
2022/05/25 10:15:16;;;;;;;0.40;0.20;;;19.00;74.60;;;;;;4934146;29;20399;-69
2022/05/25 10:17:47;;;;;;;0.40;0.35;;;19.10;73.80;;;;;;4933429;29;20398;-69
2022/05/25 10:20:27;;;;;;;0.40;0.30;;;19.10;70.70;;;;;;4933267;29;20443;-70
2022/05/25 10:23:09;;;;;;;0.40;0.20;;;18.90;72.30;;;;;;4933646;29;20478;-70
2022/05/25 10:25:44;;;;;;;0.40;0.20;;;18.80;73.20;;;;;;4933106;29;20511;-70
2022/05/25 10:28:24;;;;;;;0.40;0.25;;;18.90;73.20;;;;;;4932575;29;20415;-71
2022/05/25 10:36:56;;;;;;;0.40;0.20;;;19.20;74.50;;;;;;4932830;29;21049;-71
2022/05/25 10:39:27;;;;;;;0.40;0.20;;;19.40;73.90;;;;;;4932847;29;20482;-71
2022/05/25 10:42:25;;;;;;;0.40;0.20;;;19.40;72.40;;;;;;4933601;29;20888;-71
2022/05/25 10:44:54;;;;;;;0.40;0.30;;;19.70;71.90;;;;;;4933710;29;20428;-70
2022/05/25 10:48:07;;;;;;;0.40;0.30;;;19.90;72.40;;;;;;4933074;29;20756;-72
2022/05/25 10:51:08;;;;;;;0.40;0.20;;;20.10;74.30;;;;;;4906972;29;20435;-69
2022/05/25 10:53:41;;;;;;;0.40;0.20;;;20.10;70.90;;;;;;4932673;29;20836;-70
2022/05/25 10:56:40;;;;;;;0.40;0.20;;;20.30;72.80;;;;;;4932374;29;20412;-70
2022/05/25 10:59:28;;;;;;;0.40;0.20;;;19.90;71.70;;;;;;4931305;29;20416;-70
2022/05/25 11:02:22;;;;;;;0.40;0.20;;;19.90;72.50;;;;;;4925949;29;20426;-70
2022/05/25 11:05:09;;;;;;;0.40;0.30;;;20.10;73.20;;;;;;4932559;29;20633;-71
2022/05/25 11:07:37;;;;;;;0.40;0.30;;;20.60;75.70;;;;;;4938607;29;20399;-68
2022/05/25 11:10:16;;;;;;;0.40;0.20;;;20.20;71.10;;;;;;4940113;29;20555;-70
2022/05/25 11:12:54;;;;;;;0.40;0.30;;;20.00;72.10;;;;;;4938805;29;21064;-69
2022/05/25 11:15:37;;;;;;;0.40;0.20;;;19.90;72.30;;;;;;4939148;29;20414;-70
2022/05/25 11:18:08;;;;;;;0.40;0.20;;;20.10;77.10;;;;;;4939643;29;20751;-70
2022/05/25 11:21:24;;;;;;;0.40;0.20;;;20.90;74.70;;;;;;4938856;29;20470;-70
2022/05/25 11:23:56;;;;;;;0.40;0.30;;;21.40;69.80;;;;;;4911155;29;20422;-68
2022/05/25 11:26:41;;;;;;;0.40;0.20;;;21.20;68.30;;;;;;4920388;29;20405;-70
2022/05/25 11:29:31;;;;;;;0.40;0.30;;;21.20;69.40;;;;;;4920660;29;20509;-69
2022/05/25 11:32:11;;;;;;;0.40;0.20;;;21.70;67.70;;;;;;4920809;29;20405;-69
2022/05/25 11:34:58;;;;;;;0.40;0.30;;;21.30;66.50;;;;;;4934836;29;20452;-70
2022/05/25 11:37:35;;;;;;;0.40;0.20;;;20.50;68.10;;;;;;4931408;29;20894;-70
2022/05/25 11:40:43;;;;;;;0.40;0.30;;;19.80;72.00;;;;;;4936731;29;20422;-70
2022/05/25 11:43:25;;;;;;;0.47;0.30;;;19.90;73.60;;;;;;4938632;29;20395;-68
2022/05/25 11:46:06;;;;;;;0.40;0.20;;;21.60;65.50;;;;;;4937297;29;20403;-70
2022/05/25 11:48:53;;;;;;;0.40;0.30;;;22.20;64.30;;;;;;4936266;29;20396;-68
2022/05/25 11:51:27;;;;;;;0.40;0.20;;;23.30;60.40;;;;;;4937466;29;20791;-67
2022/05/25 11:54:07;;;;;;;0.40;0.20;;;22.50;59.30;;;;;;4936183;29;20415;-70
2022/05/25 11:56:49;;;;;;;0.40;0.20;;;24.10;59.80;;;;;;4936134;29;20760;-71
2022/05/25 11:59:40;;;;;;;0.40;0.20;;;25.00;59.90;;;;;;4936589;29;20388;-70
2022/05/25 12:02:21;;;;;;;0.40;0.20;;;26.00;57.20;;;;;;4937377;29;20417;-71
2022/05/25 12:05:05;;;;;;;0.40;0.20;;;25.00;53.70;;;;;;4936334;29;20399;-71
2022/05/25 12:07:43;;;;;;;0.40;0.20;;;25.00;55.50;;;;;;4934844;29;20490;-70
2022/05/25 12:10:18;;;;;;;0.40;0.20;;;24.40;53.00;;;;;;4935916;29;20499;-68
2022/05/25 12:12:57;;;;;;;0.40;0.20;;;23.50;52.40;;;;;;4935170;29;20415;-68
2022/05/25 12:15:36;;;;;;;0.40;0.20;;;24.00;55.50;;;;;;4952021;28;20411;-69
2022/05/25 12:18:09;;;;;;;0.40;0.20;;;25.40;52.30;;;;;;4933174;29;20487;-69
2022/05/25 12:20:45;;;;;;;0.40;0.20;;;24.60;52.60;;;;;;4933595;29;20495;-70
2022/05/25 12:23:15;;;;;;;0.40;0.20;;;24.10;52.50;;;;;;4932998;29;20864;-69
2022/05/25 12:25:50;;;;;;;0.40;0.20;;;23.60;55.20;;;;;;4932231;29;20431;-70
2022/05/25 12:28:16;;;;;;;0.40;0.20;;;24.50;53.30;;;;;;4934526;29;20485;-70
2022/05/25 12:30:47;;;;;;;0.40;0.20;;;25.10;53.70;;;;;;4933197;29;20449;-70
2022/05/25 12:33:23;;;;;;;0.40;0.20;;;26.30;51.10;;;;;;4928565;29;20961;-69
2022/05/25 12:35:50;;;;;;;0.40;0.20;;;26.90;50.30;;;;;;4932606;29;20896;-71
2022/05/25 12:38:19;;;;;;;0.40;0.20;;;27.10;51.80;;;;;;4933737;29;20764;-69
2022/05/25 12:40:54;;;;;;;0.40;0.25;;;27.30;50.00;;;;;;4933170;29;20447;-70
2022/05/25 12:43:35;;;;;;;0.40;0.20;;;26.00;49.10;;;;;;4934087;29;20899;-69
2022/05/25 12:49:02;;;;;;;0.40;0.30;;;25.90;50.70;;;;;;4932259;29;20451;-71
2022/05/25 12:51:36;;;;;;;0.40;0.30;;;25.40;50.90;;;;;;4931826;29;20448;-69
2022/05/25 12:54:05;;;;;;;0.40;0.30;;;25.80;47.80;;;;;;4932896;29;20522;-69
2022/05/25 12:56:36;;;;;;;0.40;0.20;;;25.10;49.10;;;;;;4933180;29;20496;-71
2022/05/25 12:59:12;;;;;;;0.40;0.30;;;25.30;49.40;;;;;;4933842;29;20404;-70
2022/05/25 13:01:42;;;;;;;0.40;0.20;;;24.00;50.00;;;;;;4932989;29;20404;-70
2022/05/25 13:04:30;;;;;;;0.40;0.30;;;24.10;53.40;;;;;;4933448;29;20404;-71
2022/05/25 13:06:59;;;;;;;0.40;0.30;;;23.30;54.70;;;;;;4932394;29;20419;-71
2022/05/25 13:09:40;;;;;;;0.40;0.30;;;23.80;54.60;;;;;;4931504;29;20415;-69
2022/05/25 13:12:38;;;;;;;0.40;0.30;;;24.60;51.40;;;;;;4933436;29;20438;-69
2022/05/25 13:15:24;;;;;;;0.40;0.30;;;25.00;48.80;;;;;;4932647;29;20439;-69
2022/05/25 13:17:57;;;;;;;0.40;0.20;;;25.20;48.30;;;;;;4931851;29;20408;-69
2022/05/25 13:20:30;;;;;;;0.40;0.20;;;25.50;47.00;;;;;;4932979;29;20514;-71
2022/05/25 13:23:02;;;;;;;0.40;0.30;;;25.00;47.80;;;;;;4933208;29;20412;-71
2022/05/25 13:25:58;;;;;;;0.40;0.20;;;25.00;51.60;;;;;;4932057;29;20654;-71
2022/05/25 13:28:47;;;;;;;0.40;0.30;;;25.10;48.70;;;;;;4932523;29;20772;-71
2022/05/25 13:31:31;;;;;;;0.40;0.20;;;26.20;48.40;;;;;;4931855;29;20423;-70
2022/05/25 13:34:12;;;;;;;0.40;0.20;;;26.40;47.70;;;;;;4931528;29;20745;-70
2022/05/25 13:36:50;;;;;;;0.40;0.20;;;25.60;47.10;;;;;;4931622;29;20495;-73
2022/05/25 13:39:20;;;;;;;0.40;0.20;;;24.80;46.70;;;;;;4932037;29;20781;-70
2022/05/25 13:41:58;;;;;;;0.40;0.20;;;25.30;48.70;;;;;;4931845;29;20439;-71